Time;durP1;ratioP1;P1;durP2;ratioP2;P2;SDS_P1;SDS_P2;PMS_P1;PMS_P2;Temp;Humidity;BMP_temperature;BMP_pressure;BME280_temperature;BME280_humidity;BME280_pressure;Samples;Min_cycle;Max_cycle;Signal;HPM_P1;HPM_P2
2024/01/31 00:02:12;;;;;;;6.82;3.38;;;;;;;;;;5113063;28;20024;-74
2024/01/31 00:04:58;;;;;;;11.82;4.88;;;;;;;;;;5072934;28;20509;-74
2024/01/31 00:07:44;;;;;;;14.68;4.82;;;;;;;;;;5058567;28;20024;-74
2024/01/31 00:10:32;;;;;;;10.30;4.00;;;;;;;;;;5105757;28;20027;-75
2024/01/31 00:13:18;;;;;;;11.02;3.63;;;;;;;;;;5112909;28;20497;-74
2024/01/31 00:16:04;;;;;;;13.20;3.85;;;;;;;;;;5098081;28;20051;-74
2024/01/31 00:18:50;;;;;;;15.25;3.70;;;;;;;;;;5098405;28;20023;-74
2024/01/31 00:21:36;;;;;;;9.25;3.22;;;;;;;;;;5098951;28;20103;-74
2024/01/31 00:24:21;;;;;;;13.50;3.97;;;;;;;;;;5098575;28;20027;-74
2024/01/31 00:27:07;;;;;;;15.95;3.75;;;;;;;;;;5112460;28;20028;-74
2024/01/31 00:29:53;;;;;;;17.38;3.05;;;;;;;;;;5071383;28;20547;-74
2024/01/31 00:32:38;;;;;;;11.65;3.65;;;;;;;;;;5080260;28;20051;-74
2024/01/31 00:35:24;;;;;;;14.05;3.38;;;;;;;;;;5078089;28;20020;-75
2024/01/31 00:38:10;;;;;;;18.17;2.80;;;;;;;;;;5090315;28;20568;-74
2024/01/31 00:40:55;;;;;;;8.82;3.03;;;;;;;;;;5090157;28;20016;-74
2024/01/31 00:43:41;;;;;;;7.78;2.60;;;;;;;;;;5077675;28;20024;-74
2024/01/31 00:46:27;;;;;;;19.88;3.03;;;;;;;;;;5079061;28;20028;-74
2024/01/31 00:49:12;;;;;;;13.80;3.22;;;;;;;;;;5093180;28;20032;-74
2024/01/31 00:51:58;;;;;;;12.55;3.20;;;;;;;;;;5093394;28;20031;-74
2024/01/31 00:54:44;;;;;;;7.97;3.40;;;;;;;;;;5078236;28;20020;-75
2024/01/31 00:57:29;;;;;;;13.57;3.80;;;;;;;;;;5093173;28;20027;-74
2024/01/31 01:00:18;;;;;;;10.88;3.78;;;;;;;;;;5078598;28;20081;-74
2024/01/31 01:03:04;;;;;;;11.40;3.38;;;;;;;;;;5093065;28;20028;-74
2024/01/31 01:05:49;;;;;;;9.35;2.65;;;;;;;;;;5093206;28;20075;-74
2024/01/31 01:08:35;;;;;;;8.73;2.83;;;;;;;;;;5092420;28;20024;-74
2024/01/31 01:11:21;;;;;;;13.00;3.30;;;;;;;;;;5078191;28;20085;-74
2024/01/31 01:14:06;;;;;;;7.20;3.42;;;;;;;;;;5077916;28;20020;-74
2024/01/31 01:16:52;;;;;;;18.42;3.45;;;;;;;;;;5092354;28;20103;-74
2024/01/31 01:19:37;;;;;;;9.02;3.08;;;;;;;;;;5078176;28;20027;-74
2024/01/31 01:22:23;;;;;;;13.77;2.97;;;;;;;;;;5077811;28;20024;-74
2024/01/31 01:25:10;;;;;;;16.05;2.95;;;;;;;;;;5093256;28;20487;-74
2024/01/31 01:27:55;;;;;;;10.25;3.33;;;;;;;;;;5091554;28;20024;-74
2024/01/31 01:30:43;;;;;;;16.98;3.40;;;;;;;;;;5097514;28;20059;-74
2024/01/31 01:33:28;;;;;;;13.93;3.33;;;;;;;;;;5082028;28;20031;-74
2024/01/31 01:36:14;;;;;;;8.75;2.58;;;;;;;;;;5081846;28;20024;-74
2024/01/31 01:39:00;;;;;;;7.47;3.58;;;;;;;;;;5096949;28;20024;-74
2024/01/31 01:41:51;;;;;;;10.25;2.63;;;;;;;;;;5096637;28;20374;-74
2024/01/31 01:44:43;;;;;;;10.10;1.90;;;;;;;;;;5082314;28;20389;-74
2024/01/31 01:47:29;;;;;;;11.43;3.15;;;;;;;;;;5081619;28;20020;-74
2024/01/31 01:50:14;;;;;;;11.77;2.92;;;;;;;;;;5081301;28;20048;-74
2024/01/31 01:53:00;;;;;;;7.00;2.60;;;;;;;;;;5096796;28;20028;-74
2024/01/31 01:55:46;;;;;;;8.35;2.33;;;;;;;;;;5081805;28;20393;-74
2024/01/31 01:58:32;;;;;;;14.98;3.75;;;;;;;;;;5096231;28;20140;-74
2024/01/31 02:01:19;;;;;;;11.65;3.00;;;;;;;;;;5081609;28;20104;-74
2024/01/31 02:04:05;;;;;;;10.07;2.60;;;;;;;;;;5082757;28;20028;-74
2024/01/31 02:06:51;;;;;;;16.05;3.22;;;;;;;;;;5095553;28;20477;-74
2024/01/31 02:09:36;;;;;;;5.95;2.15;;;;;;;;;;5095370;28;20032;-74
2024/01/31 02:12:22;;;;;;;9.98;2.53;;;;;;;;;;5081094;28;20042;-74
2024/01/31 02:15:11;;;;;;;11.85;2.83;;;;;;;;;;5096093;28;20097;-74
2024/01/31 02:17:56;;;;;;;10.10;2.30;;;;;;;;;;5080647;28;20107;-74
2024/01/31 02:20:42;;;;;;;7.53;1.80;;;;;;;;;;5096701;28;20397;-74
2024/01/31 02:23:28;;;;;;;7.47;2.42;;;;;;;;;;5081567;28;20489;-74
2024/01/31 02:26:13;;;;;;;6.15;3.88;;;;;;;;;;5095923;28;20447;-74
2024/01/31 02:28:59;;;;;;;10.65;3.10;;;;;;;;;;5096086;28;20020;-74
2024/01/31 02:31:45;;;;;;;14.85;2.92;;;;;;;;;;5095462;28;20024;-74
2024/01/31 02:34:30;;;;;;;12.13;2.67;;;;;;;;;;5096475;28;20101;-74
2024/01/31 02:37:16;;;;;;;6.60;2.97;;;;;;;;;;5096079;28;20020;-74
2024/01/31 02:40:02;;;;;;;14.57;2.25;;;;;;;;;;5080303;28;20031;-74
2024/01/31 02:42:47;;;;;;;9.90;3.13;;;;;;;;;;5096253;28;20455;-74
2024/01/31 02:45:35;;;;;;;19.63;4.18;;;;;;;;;;5095843;28;20024;-74
2024/01/31 02:48:20;;;;;;;15.70;4.18;;;;;;;;;;5095338;28;20012;-74
2024/01/31 02:51:06;;;;;;;7.60;3.63;;;;;;;;;;5095293;28;20102;-74
2024/01/31 02:53:52;;;;;;;13.10;3.25;;;;;;;;;;5096162;28;20019;-73
2024/01/31 02:56:37;;;;;;;13.73;2.53;;;;;;;;;;5095860;28;20086;-74
2024/01/31 02:59:23;;;;;;;6.60;2.22;;;;;;;;;;5095204;28;20031;-74
2024/01/31 03:02:09;;;;;;;4.50;2.38;;;;;;;;;;5079377;28;20027;-74
2024/01/31 03:04:54;;;;;;;10.25;2.38;;;;;;;;;;5095300;28;20371;-74
2024/01/31 03:07:40;;;;;;;13.98;3.20;;;;;;;;;;5080442;28;20097;-74
2024/01/31 03:10:25;;;;;;;4.53;3.03;;;;;;;;;;5080289;28;20028;-74
2024/01/31 03:13:11;;;;;;;7.25;2.63;;;;;;;;;;5090170;28;20106;-74
2024/01/31 03:15:57;;;;;;;8.52;2.90;;;;;;;;;;5074317;28;20032;-73
2024/01/31 03:18:43;;;;;;;8.93;2.58;;;;;;;;;;5075882;28;20024;-74
2024/01/31 03:21:28;;;;;;;8.98;2.53;;;;;;;;;;5060068;28;20020;-74
2024/01/31 03:24:15;;;;;;;15.15;2.53;;;;;;;;;;5061007;28;20559;-74
2024/01/31 03:27:02;;;;;;;3.47;2.65;;;;;;;;;;5074545;28;20017;-74
2024/01/31 03:29:48;;;;;;;5.65;3.58;;;;;;;;;;5061327;28;20032;-74
2024/01/31 03:32:34;;;;;;;14.20;3.22;;;;;;;;;;5156131;22;20043;-72
2024/01/31 03:35:19;;;;;;;14.65;3.38;;;;;;;;;;5059020;28;20024;-72
2024/01/31 03:38:05;;;;;;;10.13;2.28;;;;;;;;;;5059281;28;20074;-72
2024/01/31 03:40:51;;;;;;;13.35;2.33;;;;;;;;;;5058154;28;20016;-72
2024/01/31 03:43:36;;;;;;;10.10;2.45;;;;;;;;;;5074208;28;20021;-72
2024/01/31 03:46:24;;;;;;;16.50;2.75;;;;;;;;;;5056969;28;20077;-72
2024/01/31 03:49:10;;;;;;;6.65;2.58;;;;;;;;;;5053930;28;20107;-72
2024/01/31 03:51:55;;;;;;;5.45;1.90;;;;;;;;;;5080119;28;20020;-72
2024/01/31 03:54:43;;;;;;;11.38;4.40;;;;;;;;;;5061499;28;20032;-72
2024/01/31 03:57:29;;;;;;;7.72;2.78;;;;;;;;;;5059455;28;20021;-72
2024/01/31 04:00:15;;;;;;;11.98;2.90;;;;;;;;;;5074194;28;20021;-72
2024/01/31 04:03:00;;;;;;;6.75;2.25;;;;;;;;;;5073503;28;20032;-72
2024/01/31 04:05:46;;;;;;;11.18;2.58;;;;;;;;;;5074597;28;20031;-72
2024/01/31 04:08:32;;;;;;;12.25;2.75;;;;;;;;;;5044380;28;20021;-72
2024/01/31 04:11:18;;;;;;;6.88;2.55;;;;;;;;;;5058047;28;20058;-72
2024/01/31 04:14:03;;;;;;;5.25;1.75;;;;;;;;;;5074485;28;20393;-72
2024/01/31 04:16:49;;;;;;;13.82;3.13;;;;;;;;;;5074188;28;20028;-72
2024/01/31 04:19:34;;;;;;;15.52;2.80;;;;;;;;;;5057794;28;20024;-72
2024/01/31 04:22:20;;;;;;;7.05;2.83;;;;;;;;;;5058901;28;20085;-72
2024/01/31 04:25:09;;;;;;;5.70;2.22;;;;;;;;;;5074871;28;20052;-73
2024/01/31 04:27:54;;;;;;;7.65;2.20;;;;;;;;;;5073209;28;20620;-72
2024/01/31 04:30:40;;;;;;;7.90;2.60;;;;;;;;;;5091134;28;20051;-72
2024/01/31 04:33:26;;;;;;;5.13;2.38;;;;;;;;;;5064036;28;20541;-72
2024/01/31 04:36:12;;;;;;;11.52;2.95;;;;;;;;;;5073992;28;20039;-72
2024/01/31 04:38:59;;;;;;;10.52;3.20;;;;;;;;;;5073299;28;20100;-72
2024/01/31 04:41:46;;;;;;;11.55;3.58;;;;;;;;;;5058192;28;20029;-72
2024/01/31 04:44:32;;;;;;;15.25;3.03;;;;;;;;;;5059140;28;20481;-72
2024/01/31 04:47:18;;;;;;;6.70;2.15;;;;;;;;;;5057367;28;20115;-72
2024/01/31 04:50:04;;;;;;;8.40;2.75;;;;;;;;;;5073899;28;20024;-72
2024/01/31 04:52:50;;;;;;;6.28;2.65;;;;;;;;;;5057892;28;20029;-72
2024/01/31 04:55:36;;;;;;;6.18;3.08;;;;;;;;;;5058418;28;20059;-72
2024/01/31 04:58:22;;;;;;;10.50;2.45;;;;;;;;;;5056993;28;20031;-72
2024/01/31 05:01:07;;;;;;;6.85;3.47;;;;;;;;;;5058262;28;20016;-72
2024/01/31 05:03:53;;;;;;;6.53;2.42;;;;;;;;;;5057538;28;20397;-72
2024/01/31 05:06:39;;;;;;;9.48;2.80;;;;;;;;;;5058893;28;20108;-72
2024/01/31 05:09:24;;;;;;;13.20;3.78;;;;;;;;;;5056110;28;20029;-72
2024/01/31 05:12:10;;;;;;;5.47;2.60;;;;;;;;;;5067471;28;20027;-72
2024/01/31 05:14:56;;;;;;;14.57;2.75;;;;;;;;;;5071754;28;20021;-71
2024/01/31 05:17:41;;;;;;;7.28;2.47;;;;;;;;;;5051119;28;20035;-72
2024/01/31 05:20:29;;;;;;;6.13;3.03;;;;;;;;;;5057486;28;20032;-72
2024/01/31 05:23:14;;;;;;;5.22;2.80;;;;;;;;;;5053385;28;20474;-72
2024/01/31 05:26:00;;;;;;;15.57;2.67;;;;;;;;;;5056361;28;20035;-72
2024/01/31 05:28:46;;;;;;;14.35;3.13;;;;;;;;;;5072504;28;20028;-72
2024/01/31 05:31:31;;;;;;;14.63;3.53;;;;;;;;;;5072957;28;20028;-72
2024/01/31 05:34:17;;;;;;;7.63;2.53;;;;;;;;;;5058501;28;20040;-72
2024/01/31 05:37:03;;;;;;;16.67;3.38;;;;;;;;;;5073531;28;20021;-72
2024/01/31 05:39:49;;;;;;;8.00;2.30;;;;;;;;;;5057984;28;20032;-72
2024/01/31 05:42:34;;;;;;;11.10;3.05;;;;;;;;;;5071459;28;20025;-72
2024/01/31 05:45:23;;;;;;;11.10;3.10;;;;;;;;;;5073248;28;20028;-72
2024/01/31 05:48:08;;;;;;;3.65;2.72;;;;;;;;;;5073122;28;20020;-72
2024/01/31 05:50:54;;;;;;;9.95;2.83;;;;;;;;;;5071599;28;20020;-72
2024/01/31 05:53:40;;;;;;;9.55;2.92;;;;;;;;;;5056626;28;20059;-72
2024/01/31 05:56:26;;;;;;;8.65;3.10;;;;;;;;;;5057957;28;20021;-72
2024/01/31 05:59:12;;;;;;;8.18;3.47;;;;;;;;;;5057796;28;20021;-73
2024/01/31 06:01:59;;;;;;;17.88;2.85;;;;;;;;;;5073027;28;20024;-73
2024/01/31 06:04:44;;;;;;;8.15;2.58;;;;;;;;;;5057809;28;20028;-72
2024/01/31 06:07:30;;;;;;;14.27;3.28;;;;;;;;;;5072686;28;20067;-73
2024/01/31 06:10:15;;;;;;;10.93;2.70;;;;;;;;;;5056969;28;20500;-73
2024/01/31 06:13:01;;;;;;;4.55;2.65;;;;;;;;;;5057465;28;20420;-72
2024/01/31 06:15:50;;;;;;;9.30;2.70;;;;;;;;;;5058156;28;20024;-72
2024/01/31 06:18:37;;;;;;;18.17;4.03;;;;;;;;;;5076284;28;20039;-73
2024/01/31 06:21:23;;;;;;;9.48;2.45;;;;;;;;;;5075945;28;20021;-72
2024/01/31 06:24:09;;;;;;;17.02;2.90;;;;;;;;;;5075964;28;20401;-72
2024/01/31 06:26:54;;;;;;;10.25;2.63;;;;;;;;;;5076400;28;20020;-73
2024/01/31 06:29:40;;;;;;;8.43;2.92;;;;;;;;;;5060862;28;20063;-72
2024/01/31 06:32:31;;;;;;;10.63;3.38;;;;;;;;;;5106983;22;20117;-72
2024/01/31 06:35:17;;;;;;;8.43;3.40;;;;;;;;;;5076069;28;20028;-73
2024/01/31 06:38:03;;;;;;;11.52;2.65;;;;;;;;;;5074874;28;20024;-72
2024/01/31 06:40:48;;;;;;;13.32;3.22;;;;;;;;;;5104811;28;20035;-73
2024/01/31 06:43:34;;;;;;;9.52;2.88;;;;;;;;;;5114790;28;20027;-72
2024/01/31 06:46:20;;;;;;;11.25;2.75;;;;;;;;;;5100433;28;20027;-73
2024/01/31 06:49:06;;;;;;;10.05;2.88;;;;;;;;;;5100629;28;20102;-72
2024/01/31 06:51:52;;;;;;;8.55;2.80;;;;;;;;;;5100696;28;20106;-72
2024/01/31 06:54:37;;;;;;;9.77;2.63;;;;;;;;;;5100759;28;20023;-72
2024/01/31 06:57:23;;;;;;;8.43;2.97;;;;;;;;;;5100647;28;20077;-72
2024/01/31 07:00:10;;;;;;;10.32;2.63;;;;;;;;;;5115012;28;20042;-73
2024/01/31 07:02:57;;;;;;;10.02;3.67;;;;;;;;;;5115798;28;20106;-74
2024/01/31 07:05:43;;;;;;;6.53;2.42;;;;;;;;;;5101710;28;20019;-74
2024/01/31 07:08:29;;;;;;;6.45;2.78;;;;;;;;;;5100771;28;20032;-74
2024/01/31 07:11:14;;;;;;;9.00;2.83;;;;;;;;;;5099618;28;20028;-74
2024/01/31 07:14:00;;;;;;;10.95;2.83;;;;;;;;;;5114356;28;20031;-74
2024/01/31 07:16:46;;;;;;;9.70;2.50;;;;;;;;;;5100671;28;20024;-74
2024/01/31 07:19:32;;;;;;;7.00;2.63;;;;;;;;;;5100791;28;20072;-74
2024/01/31 07:22:18;;;;;;;10.65;2.53;;;;;;;;;;5114109;28;20488;-74
2024/01/31 07:25:04;;;;;;;14.32;3.28;;;;;;;;;;5101036;28;20077;-74
2024/01/31 07:27:50;;;;;;;5.85;3.00;;;;;;;;;;5091176;28;20086;-73
2024/01/31 07:30:36;;;;;;;8.00;2.38;;;;;;;;;;5076626;28;20024;-73
2024/01/31 07:33:22;;;;;;;12.43;2.60;;;;;;;;;;5070598;28;20379;-71
2024/01/31 07:36:08;;;;;;;10.77;2.30;;;;;;;;;;5086748;28;20036;-73
2024/01/31 07:38:54;;;;;;;11.70;3.53;;;;;;;;;;5085306;28;20071;-73
2024/01/31 07:41:39;;;;;;;11.05;3.78;;;;;;;;;;5078785;28;20115;-73
2024/01/31 07:44:25;;;;;;;10.75;3.10;;;;;;;;;;5102957;28;20114;-72
2024/01/31 07:47:10;;;;;;;9.68;2.30;;;;;;;;;;5113856;28;20041;-73
2024/01/31 07:49:56;;;;;;;14.68;3.05;;;;;;;;;;5086578;28;20027;-73
2024/01/31 07:52:42;;;;;;;12.30;2.65;;;;;;;;;;5111641;28;20026;-73
2024/01/31 07:55:27;;;;;;;16.58;3.15;;;;;;;;;;5085029;28;20090;-73
2024/01/31 07:58:15;;;;;;;9.30;3.38;;;;;;;;;;5086123;28;20100;-73
2024/01/31 08:01:01;;;;;;;10.70;2.88;;;;;;;;;;5084589;28;20019;-73
2024/01/31 08:03:47;;;;;;;9.57;2.53;;;;;;;;;;5102718;28;20066;-73
2024/01/31 08:06:32;;;;;;;10.70;2.65;;;;;;;;;;5080902;28;20102;-73
2024/01/31 08:09:18;;;;;;;7.22;2.53;;;;;;;;;;5099299;28;20062;-73
2024/01/31 08:12:04;;;;;;;12.18;3.83;;;;;;;;;;5088980;28;20051;-73
2024/01/31 08:14:50;;;;;;;18.48;2.50;;;;;;;;;;5084653;28;20088;-74
2024/01/31 08:17:36;;;;;;;10.00;2.72;;;;;;;;;;5112873;28;20023;-72
2024/01/31 08:20:21;;;;;;;8.93;2.35;;;;;;;;;;5098869;28;20031;-73
2024/01/31 08:23:07;;;;;;;11.40;2.63;;;;;;;;;;5078708;28;20549;-74
2024/01/31 08:25:53;;;;;;;12.68;3.25;;;;;;;;;;5071453;28;20060;-74
2024/01/31 08:28:39;;;;;;;7.90;3.03;;;;;;;;;;5087786;28;20107;-73
2024/01/31 08:31:24;;;;;;;13.80;2.97;;;;;;;;;;5094642;28;20012;-73
2024/01/31 08:34:10;;;;;;;8.00;2.75;;;;;;;;;;5097857;28;20031;-73
2024/01/31 08:36:56;;;;;;;8.70;2.80;;;;;;;;;;5098150;28;20027;-74
2024/01/31 08:39:41;;;;;;;15.48;2.72;;;;;;;;;;5112449;28;20027;-74
2024/01/31 08:42:28;;;;;;;11.77;2.70;;;;;;;;;;5098038;28;20024;-74
2024/01/31 08:45:14;;;;;;;4.75;2.05;;;;;;;;;;5113055;28;20043;-73
2024/01/31 08:48:00;;;;;;;8.93;2.30;;;;;;;;;;5085487;28;20061;-73
2024/01/31 08:50:45;;;;;;;9.57;3.25;;;;;;;;;;5098778;28;20480;-73
2024/01/31 08:53:31;;;;;;;3.45;2.38;;;;;;;;;;5098614;28;20051;-73
2024/01/31 08:56:17;;;;;;;7.80;2.35;;;;;;;;;;5098208;28;20073;-73
2024/01/31 08:59:04;;;;;;;3.10;2.88;;;;;;;;;;5113165;28;20050;-73
2024/01/31 09:01:49;;;;;;;9.13;2.13;;;;;;;;;;5098142;28;20078;-73
2024/01/31 09:04:35;;;;;;;9.95;2.72;;;;;;;;;;5112839;28;20023;-73
2024/01/31 09:07:21;;;;;;;14.13;2.47;;;;;;;;;;5113241;28;20016;-73
2024/01/31 09:10:07;;;;;;;10.32;2.78;;;;;;;;;;5112583;28;20020;-73
2024/01/31 09:12:53;;;;;;;9.30;2.65;;;;;;;;;;5098157;28;20099;-73
2024/01/31 09:15:39;;;;;;;9.68;3.28;;;;;;;;;;5113427;28;20023;-73
2024/01/31 09:18:27;;;;;;;6.40;2.28;;;;;;;;;;5097890;28;20020;-73
2024/01/31 09:21:27;;;;;;;6.97;2.85;;;;;;;;;;5113117;28;20523;-73
2024/01/31 09:24:12;;;;;;;9.40;2.47;;;;;;;;;;5099198;28;20024;-74
2024/01/31 09:26:58;;;;;;;5.88;2.80;;;;;;;;;;5111665;28;20039;-73
2024/01/31 09:29:44;;;;;;;10.02;2.05;;;;;;;;;;5112311;28;20392;-73
2024/01/31 09:32:29;;;;;;;11.52;2.85;;;;;;;;;;5112265;28;20084;-73
2024/01/31 09:35:15;;;;;;;11.75;2.72;;;;;;;;;;5083931;28;20035;-73
2024/01/31 09:38:01;;;;;;;4.72;2.28;;;;;;;;;;5111218;28;20024;-74
2024/01/31 09:40:46;;;;;;;6.78;2.08;;;;;;;;;;5112284;28;20020;-73
2024/01/31 09:43:32;;;;;;;10.55;3.40;;;;;;;;;;5112430;28;20024;-73
2024/01/31 09:46:17;;;;;;;7.47;2.33;;;;;;;;;;5112299;28;20028;-73
2024/01/31 09:49:03;;;;;;;6.78;2.15;;;;;;;;;;5098264;28;20026;-74
2024/01/31 09:51:49;;;;;;;6.38;2.58;;;;;;;;;;5101814;28;20028;-73
2024/01/31 09:54:34;;;;;;;8.85;2.42;;;;;;;;;;5088885;28;20491;-74
2024/01/31 09:57:20;;;;;;;8.23;2.03;;;;;;;;;;5116373;28;20388;-74
2024/01/31 10:00:07;;;;;;;8.63;2.67;;;;;;;;;;5100796;28;20048;-73
2024/01/31 10:02:53;;;;;;;11.43;2.65;;;;;;;;;;5087133;28;20126;-73
2024/01/31 10:05:38;;;;;;;7.80;2.42;;;;;;;;;;5117376;28;20039;-73
2024/01/31 10:08:27;;;;;;;6.90;2.55;;;;;;;;;;5106363;28;20016;-72
2024/01/31 10:11:13;;;;;;;10.38;2.60;;;;;;;;;;5094800;28;20020;-73
2024/01/31 10:13:58;;;;;;;2.97;1.95;;;;;;;;;;5092527;28;20035;-73
2024/01/31 10:16:44;;;;;;;6.35;2.75;;;;;;;;;;5106858;28;20019;-72
2024/01/31 10:19:30;;;;;;;5.25;2.15;;;;;;;;;;5100456;28;20028;-72
2024/01/31 10:22:16;;;;;;;15.00;2.50;;;;;;;;;;5115036;28;20024;-72
2024/01/31 10:25:04;;;;;;;8.05;3.25;;;;;;;;;;5060484;28;20030;-73
2024/01/31 10:27:51;;;;;;;25.63;2.97;;;;;;;;;;5075912;28;20138;-73
2024/01/31 10:30:40;;;;;;;12.00;3.03;;;;;;;;;;5081721;28;20028;-73
2024/01/31 10:33:26;;;;;;;7.03;3.03;;;;;;;;;;5059846;28;20024;-73
2024/01/31 10:36:12;;;;;;;4.50;2.45;;;;;;;;;;5063840;28;20021;-72
2024/01/31 10:38:57;;;;;;;7.85;2.80;;;;;;;;;;5066974;28;20036;-72
2024/01/31 10:41:43;;;;;;;3.55;2.78;;;;;;;;;;5069939;28;20099;-72
2024/01/31 10:44:30;;;;;;;10.77;2.30;;;;;;;;;;5075163;28;20037;-73
2024/01/31 10:47:17;;;;;;;5.78;2.97;;;;;;;;;;5071391;28;20024;-73
2024/01/31 10:50:02;;;;;;;6.15;2.80;;;;;;;;;;5072809;28;20021;-73
2024/01/31 10:52:49;;;;;;;6.95;3.20;;;;;;;;;;5071480;28;20020;-73
2024/01/31 10:55:35;;;;;;;5.05;2.72;;;;;;;;;;5066074;28;20028;-72
2024/01/31 10:58:22;;;;;;;5.82;2.55;;;;;;;;;;5060180;28;20104;-73
2024/01/31 11:01:12;;;;;;;4.68;2.35;;;;;;;;;;5084498;28;20026;-73
2024/01/31 11:03:57;;;;;;;8.88;2.70;;;;;;;;;;5113710;28;20025;-73
2024/01/31 11:06:43;;;;;;;17.25;3.65;;;;;;;;;;5100142;28;20019;-73
2024/01/31 11:09:29;;;;;;;9.88;2.42;;;;;;;;;;5099473;28;20084;-73
2024/01/31 11:12:15;;;;;;;5.05;2.58;;;;;;;;;;5113027;28;20019;-73
2024/01/31 11:15:04;;;;;;;5.97;2.30;;;;;;;;;;5085946;28;20084;-72
2024/01/31 11:18:01;;;;;;;10.88;2.08;;;;;;;;;;5100210;28;20396;-73
2024/01/31 11:20:49;;;;;;;5.50;2.38;;;;;;;;;;5086345;28;20067;-73
2024/01/31 11:23:35;;;;;;;8.98;2.47;;;;;;;;;;5099699;28;20500;-73
2024/01/31 11:26:30;;;;;;;11.93;2.92;;;;;;;;;;5099071;28;20412;-73
2024/01/31 11:29:16;;;;;;;5.20;2.50;;;;;;;;;;5100751;28;20023;-73
2024/01/31 11:32:01;;;;;;;9.50;2.65;;;;;;;;;;5098861;28;20031;-73
2024/01/31 11:34:58;;;;;;;4.78;2.65;;;;;;;;;;5099450;28;20016;-73
2024/01/31 11:37:44;;;;;;;11.80;2.83;;;;;;;;;;5113984;28;20061;-73
2024/01/31 11:40:30;;;;;;;5.00;3.03;;;;;;;;;;5085799;28;20056;-73
2024/01/31 11:43:17;;;;;;;9.38;3.00;;;;;;;;;;5113401;28;20020;-73
2024/01/31 11:46:03;;;;;;;14.02;3.55;;;;;;;;;;5114653;28;20042;-73
2024/01/31 11:48:48;;;;;;;9.43;2.75;;;;;;;;;;5099759;28;20098;-73
2024/01/31 11:51:34;;;;;;;3.97;2.33;;;;;;;;;;5113692;28;20105;-73
2024/01/31 11:54:19;;;;;;;4.30;2.58;;;;;;;;;;5115472;28;20496;-73
2024/01/31 11:57:07;;;;;;;6.47;2.08;;;;;;;;;;5112351;27;20396;-73
2024/01/31 11:59:53;;;;;;;8.73;2.55;;;;;;;;;;5099430;28;20093;-73
2024/01/31 12:02:39;;;;;;;6.85;2.35;;;;;;;;;;5099245;28;20400;-73
2024/01/31 12:05:25;;;;;;;7.20;2.08;;;;;;;;;;5110308;28;20078;-73
2024/01/31 12:08:16;;;;;;;7.70;2.22;;;;;;;;;;5109271;28;20448;-72
2024/01/31 12:11:02;;;;;;;3.85;1.40;;;;;;;;;;5109732;28;20030;-72
2024/01/31 12:13:48;;;;;;;6.55;2.28;;;;;;;;;;5109863;28;20500;-73
2024/01/31 12:16:43;;;;;;;5.88;2.38;;;;;;;;;;5109597;28;20032;-73
2024/01/31 12:19:29;;;;;;;14.30;2.28;;;;;;;;;;5095829;28;20024;-73
2024/01/31 12:22:18;;;;;;;11.05;2.50;;;;;;;;;;5109437;28;20032;-73
2024/01/31 12:25:04;;;;;;;11.13;2.15;;;;;;;;;;5095295;28;20023;-73
2024/01/31 12:27:50;;;;;;;12.70;2.83;;;;;;;;;;5109815;28;20024;-73
2024/01/31 12:30:35;;;;;;;7.35;3.00;;;;;;;;;;5110951;28;20481;-73
2024/01/31 12:33:21;;;;;;;7.88;3.40;;;;;;;;;;5116459;28;20015;-73
2024/01/31 12:36:07;;;;;;;8.73;2.78;;;;;;;;;;5097543;28;20027;-73
2024/01/31 12:38:53;;;;;;;7.88;2.83;;;;;;;;;;5104722;28;20051;-72
2024/01/31 12:41:38;;;;;;;9.68;3.22;;;;;;;;;;5122207;28;20030;-73
2024/01/31 12:44:24;;;;;;;7.13;2.53;;;;;;;;;;5129989;28;20480;-73
2024/01/31 12:47:10;;;;;;;5.95;3.05;;;;;;;;;;5114985;28;20157;-73
2024/01/31 12:49:56;;;;;;;5.63;2.25;;;;;;;;;;5130266;28;20023;-73
2024/01/31 12:52:43;;;;;;;5.43;2.88;;;;;;;;;;5129222;28;20050;-73
2024/01/31 12:55:29;;;;;;;8.43;3.72;;;;;;;;;;5099893;28;20036;-73
2024/01/31 12:58:15;;;;;;;8.73;3.58;;;;;;;;;;5080374;28;20031;-72
2024/01/31 13:01:00;;;;;;;7.82;3.63;;;;;;;;;;5109117;28;20077;-73
2024/01/31 13:03:46;;;;;;;17.02;4.40;;;;;;;;;;5095373;28;20042;-73
2024/01/31 13:06:32;;;;;;;13.15;3.88;;;;;;;;;;5107749;28;20020;-73
2024/01/31 13:09:17;;;;;;;7.03;3.22;;;;;;;;;;5097071;28;20142;-72
2024/01/31 13:12:03;;;;;;;6.63;3.30;;;;;;;;;;5101266;28;20477;-73
2024/01/31 13:14:49;;;;;;;5.75;4.47;;;;;;;;;;5086646;28;20052;-73
2024/01/31 13:17:34;;;;;;;7.35;4.38;;;;;;;;;;5116362;28;20020;-73
2024/01/31 13:20:23;;;;;;;7.70;4.68;;;;;;;;;;5115240;28;20027;-73
2024/01/31 13:23:09;;;;;;;11.07;4.80;;;;;;;;;;5116957;28;20069;-73
2024/01/31 13:25:54;;;;;;;14.85;4.70;;;;;;;;;;5100744;28;20019;-73
2024/01/31 13:28:40;;;;;;;8.20;4.50;;;;;;;;;;5115286;28;20077;-72
2024/01/31 13:31:25;;;;;;;11.43;5.00;;;;;;;;;;5115843;28;20054;-73
2024/01/31 13:34:11;;;;;;;8.15;4.47;;;;;;;;;;5104451;28;20035;-72
2024/01/31 13:36:57;;;;;;;9.15;4.53;;;;;;;;;;5094744;28;20111;-73
2024/01/31 13:39:43;;;;;;;10.95;4.38;;;;;;;;;;5104360;28;20104;-73
2024/01/31 13:42:28;;;;;;;16.50;5.28;;;;;;;;;;5094258;28;20055;-73
2024/01/31 13:45:14;;;;;;;9.00;5.10;;;;;;;;;;5081116;28;20012;-73
2024/01/31 13:48:00;;;;;;;10.93;5.18;;;;;;;;;;5095587;28;20107;-73
2024/01/31 13:50:45;;;;;;;14.45;5.40;;;;;;;;;;5096123;28;20016;-73
2024/01/31 13:53:31;;;;;;;12.68;5.47;;;;;;;;;;5095394;28;20020;-73
2024/01/31 13:56:18;;;;;;;14.00;5.50;;;;;;;;;;5080797;28;20028;-73
2024/01/31 13:59:03;;;;;;;12.57;6.22;;;;;;;;;;5095163;28;20490;-72
2024/01/31 14:01:49;;;;;;;10.18;5.50;;;;;;;;;;5095175;28;20023;-73
2024/01/31 14:04:35;;;;;;;13.30;5.63;;;;;;;;;;5080117;28;20028;-73
2024/01/31 14:07:20;;;;;;;13.27;5.47;;;;;;;;;;5081011;28;20072;-73
2024/01/31 14:10:06;;;;;;;8.23;4.88;;;;;;;;;;5089431;28;20027;-73
2024/01/31 14:12:57;;;;;;;10.65;5.93;;;;;;;;;;5088869;28;20493;-75
2024/01/31 14:15:43;;;;;;;10.85;5.82;;;;;;;;;;5091810;28;20020;-75
2024/01/31 14:18:29;;;;;;;13.50;5.50;;;;;;;;;;5106288;28;20028;-76
2024/01/31 14:21:15;;;;;;;11.93;6.38;;;;;;;;;;5106313;28;20101;-75
2024/01/31 14:24:00;;;;;;;9.30;5.28;;;;;;;;;;5093359;28;20095;-76
2024/01/31 14:26:46;;;;;;;15.95;6.97;;;;;;;;;;5068669;28;20486;-76
2024/01/31 14:29:32;;;;;;;19.15;6.53;;;;;;;;;;5087478;28;20031;-76
2024/01/31 14:32:19;;;;;;;13.23;5.60;;;;;;;;;;5092326;28;20024;-76
2024/01/31 14:35:04;;;;;;;16.15;6.40;;;;;;;;;;5104734;28;20038;-77
2024/01/31 14:37:50;;;;;;;9.25;6.03;;;;;;;;;;5077433;28;20394;-76
2024/01/31 14:40:37;;;;;;;12.40;5.65;;;;;;;;;;5074890;28;20089;-77
2024/01/31 14:43:24;;;;;;;8.35;5.55;;;;;;;;;;5102133;28;20400;-76
2024/01/31 14:46:10;;;;;;;12.65;5.60;;;;;;;;;;5092458;28;20019;-76
2024/01/31 14:48:56;;;;;;;9.75;5.93;;;;;;;;;;5098231;28;20063;-76
2024/01/31 14:51:41;;;;;;;9.60;4.72;;;;;;;;;;5105280;28;20549;-76
2024/01/31 14:54:27;;;;;;;8.60;5.05;;;;;;;;;;5100234;28;20032;-76
2024/01/31 14:57:12;;;;;;;15.45;4.68;;;;;;;;;;5105042;28;20032;-76
2024/01/31 14:59:58;;;;;;;11.73;5.13;;;;;;;;;;5084394;28;20024;-76
2024/01/31 15:02:44;;;;;;;12.48;5.03;;;;;;;;;;5101189;28;20055;-76
2024/01/31 15:05:30;;;;;;;9.98;5.22;;;;;;;;;;5099424;28;20031;-76
2024/01/31 15:08:15;;;;;;;15.68;4.97;;;;;;;;;;5102477;28;20052;-76
2024/01/31 15:11:01;;;;;;;17.35;5.78;;;;;;;;;;5107492;28;20032;-77
2024/01/31 15:13:47;;;;;;;9.98;5.20;;;;;;;;;;5107001;28;20027;-74
2024/01/31 15:16:32;;;;;;;13.45;4.07;;;;;;;;;;5102552;28;20019;-73
2024/01/31 15:19:18;;;;;;;12.48;4.60;;;;;;;;;;5111939;28;20024;-74
2024/01/31 15:22:04;;;;;;;10.15;4.43;;;;;;;;;;5079669;28;20086;-73
2024/01/31 15:24:49;;;;;;;15.32;6.45;;;;;;;;;;5103648;28;20027;-72
2024/01/31 15:27:36;;;;;;;10.85;5.22;;;;;;;;;;5102777;28;20428;-72
2024/01/31 15:30:22;;;;;;;11.70;5.32;;;;;;;;;;5100902;28;20020;-72
2024/01/31 15:33:08;;;;;;;12.25;5.38;;;;;;;;;;5089608;28;20027;-72
2024/01/31 15:35:53;;;;;;;10.15;4.70;;;;;;;;;;5075735;28;20049;-72
2024/01/31 15:38:39;;;;;;;14.95;5.30;;;;;;;;;;5101288;28;20020;-72
2024/01/31 15:41:24;;;;;;;12.60;6.03;;;;;;;;;;5098010;28;20091;-73
2024/01/31 15:44:10;;;;;;;8.77;5.13;;;;;;;;;;5096466;28;20032;-73
2024/01/31 15:46:56;;;;;;;11.27;5.20;;;;;;;;;;5086774;28;20024;-72
2024/01/31 15:49:43;;;;;;;7.95;4.15;;;;;;;;;;5100507;28;20027;-73
2024/01/31 15:52:28;;;;;;;12.20;5.72;;;;;;;;;;5096881;28;20019;-72
2024/01/31 15:55:14;;;;;;;10.65;5.38;;;;;;;;;;5098198;28;20440;-72
2024/01/31 15:58:00;;;;;;;10.65;5.35;;;;;;;;;;5096905;28;20067;-73
2024/01/31 16:00:45;;;;;;;16.30;5.05;;;;;;;;;;5077733;28;20032;-73
2024/01/31 16:03:31;;;;;;;10.70;5.07;;;;;;;;;;5078765;28;20082;-73
2024/01/31 16:06:17;;;;;;;11.85;5.70;;;;;;;;;;5079090;28;20020;-73
2024/01/31 16:09:04;;;;;;;12.20;5.28;;;;;;;;;;5091086;28;20024;-73
2024/01/31 16:11:51;;;;;;;8.23;4.55;;;;;;;;;;5078010;28;20063;-73
2024/01/31 16:14:37;;;;;;;9.40;5.07;;;;;;;;;;5077317;28;20028;-74
2024/01/31 16:17:23;;;;;;;12.65;4.60;;;;;;;;;;5078048;28;20039;-73
2024/01/31 16:20:12;;;;;;;12.77;4.35;;;;;;;;;;5093506;28;20035;-73
2024/01/31 16:22:57;;;;;;;8.00;4.65;;;;;;;;;;5078828;28;20027;-73
2024/01/31 16:25:43;;;;;;;8.68;5.25;;;;;;;;;;5079686;28;20099;-73
2024/01/31 16:28:29;;;;;;;11.23;6.35;;;;;;;;;;5063235;28;20024;-73